createdAt,value
2022-10-09T00:01:09.429Z,7.30
2022-10-09T00:03:44.229Z,6.70
2022-10-09T00:06:14.977Z,6.50
2022-10-09T00:08:45.231Z,5.93
2022-10-09T00:11:15.947Z,6.07
2022-10-09T00:13:43.585Z,5.82
2022-10-09T00:16:13.309Z,5.90
2022-10-09T00:18:40.781Z,5.25
2022-10-09T00:21:25.509Z,5.22
2022-10-09T00:23:54.704Z,5.32
2022-10-09T00:26:22.653Z,5.53
2022-10-09T00:28:50.371Z,5.38
2022-10-09T00:31:17.943Z,5.85
2022-10-09T00:33:45.194Z,4.93
2022-10-09T00:36:15.340Z,4.75
2022-10-09T00:38:43.285Z,5.13
2022-10-09T00:41:15.792Z,4.70
2022-10-09T00:43:52.646Z,4.70
2022-10-09T00:46:23.626Z,5.07
2022-10-09T00:48:58.168Z,4.57
2022-10-09T00:51:25.647Z,4.35
2022-10-09T00:53:52.553Z,4.38
2022-10-09T00:56:19.554Z,5.18
2022-10-09T00:58:52.470Z,5.50
2022-10-09T01:01:20.007Z,5.75
2022-10-09T01:03:47.126Z,6.18
2022-10-09T01:06:13.911Z,6.00
2022-10-09T01:08:56.652Z,5.70
2022-10-09T01:11:32.692Z,5.93
2022-10-09T01:14:20.328Z,6.70
2022-10-09T01:17:13.306Z,6.15
2022-10-09T01:19:59.493Z,6.35
2022-10-09T01:22:44.841Z,6.65
2022-10-09T01:25:23.769Z,7.97
2022-10-09T01:27:51.240Z,6.72
2022-10-09T01:30:18.543Z,6.90
2022-10-09T01:32:49.938Z,6.80
2022-10-09T01:35:18.106Z,7.22
2022-10-09T01:37:47.125Z,6.82
2022-10-09T01:40:16.557Z,7.55
2022-10-09T01:42:44.127Z,6.93
2022-10-09T01:45:11.601Z,7.07
2022-10-09T01:47:38.523Z,6.40
2022-10-09T01:50:15.641Z,6.45
2022-10-09T01:53:04.060Z,6.13
2022-10-09T01:55:59.361Z,7.45
2022-10-09T01:58:39.501Z,6.82
2022-10-09T02:01:17.441Z,6.75
2022-10-09T02:03:48.102Z,6.93
2022-10-09T02:06:17.049Z,6.97
2022-10-09T02:08:47.167Z,7.43
2022-10-09T02:11:15.212Z,6.47
2022-10-09T02:13:44.201Z,6.20
2022-10-09T02:16:13.794Z,6.43
2022-10-09T02:18:45.608Z,6.80
2022-10-09T02:21:24.488Z,5.97
2022-10-09T02:23:53.126Z,6.07
2022-10-09T02:26:20.814Z,5.93
2022-10-09T02:28:48.001Z,6.20
2022-10-09T02:31:25.467Z,7.25
2022-10-09T02:34:00.829Z,6.68
2022-10-09T02:36:29.278Z,7.22
2022-10-09T02:38:57.310Z,7.40
2022-10-09T02:41:24.834Z,7.00
2022-10-09T02:43:52.731Z,8.07
2022-10-09T02:46:20.388Z,9.02
2022-10-09T02:48:47.301Z,8.45
2022-10-09T02:51:14.320Z,8.57
2022-10-09T02:53:41.418Z,8.73
2022-10-09T02:56:08.490Z,7.97
2022-10-09T02:58:36.272Z,7.85
2022-10-09T03:01:05.056Z,7.68
2022-10-09T03:03:33.022Z,8.55
2022-10-09T03:06:05.084Z,8.40
2022-10-09T03:08:32.528Z,8.73
2022-10-09T03:10:59.457Z,8.48
2022-10-09T03:13:26.479Z,8.48
2022-10-09T03:15:53.664Z,8.15
2022-10-09T03:18:20.681Z,9.02
2022-10-09T03:20:47.882Z,9.57
2022-10-09T03:23:14.921Z,9.35
2022-10-09T03:25:41.779Z,8.77
2022-10-09T03:28:08.837Z,9.18
2022-10-09T03:30:40.362Z,9.38
2022-10-09T03:33:07.211Z,8.88
2022-10-09T03:35:34.102Z,8.18
2022-10-09T03:38:01.220Z,8.82
2022-10-09T03:40:28.110Z,9.30
2022-10-09T03:42:54.990Z,9.27
2022-10-09T03:45:22.024Z,8.20
2022-10-09T03:47:49.106Z,9.23
2022-10-09T03:50:16.158Z,8.80
2022-10-09T03:52:43.262Z,8.52
2022-10-09T03:55:10.274Z,9.63
2022-10-09T03:57:37.417Z,8.88
2022-10-09T04:00:06.209Z,9.00
2022-10-09T04:02:34.238Z,8.68
2022-10-09T04:05:01.181Z,8.57
2022-10-09T04:07:28.425Z,8.20
2022-10-09T04:09:55.632Z,8.75
2022-10-09T04:12:22.676Z,9.50
2022-10-09T04:14:50.020Z,9.60
2022-10-09T04:17:17.120Z,8.30
2022-10-09T04:19:44.051Z,8.55
2022-10-09T04:22:11.150Z,8.57
2022-10-09T04:24:38.118Z,8.88
2022-10-09T04:27:05.052Z,8.90
2022-10-09T04:29:32.163Z,9.73
2022-10-09T04:31:59.174Z,9.45
2022-10-09T04:34:26.201Z,10.68
2022-10-09T04:36:53.299Z,10.35
2022-10-09T04:39:20.216Z,9.95
2022-10-09T04:41:47.155Z,9.45
2022-10-09T04:44:14.245Z,9.27
2022-10-09T04:46:41.174Z,10.27
2022-10-09T04:49:12.846Z,10.20
2022-10-09T04:51:40.569Z,10.10
2022-10-09T04:54:07.434Z,9.50
2022-10-09T04:56:34.744Z,9.15
2022-10-09T04:59:02.107Z,9.98
2022-10-09T05:01:32.067Z,9.82
2022-10-09T05:04:02.590Z,10.13
2022-10-09T05:06:29.812Z,11.85
2022-10-09T05:08:56.807Z,10.02
2022-10-09T05:11:25.939Z,10.00
2022-10-09T05:13:54.949Z,9.85
2022-10-09T05:16:24.669Z,10.65
2022-10-09T05:18:54.406Z,11.23
2022-10-09T05:21:22.394Z,11.68
2022-10-09T05:23:49.618Z,11.15
2022-10-09T05:26:20.749Z,11.60
2022-10-09T05:28:48.379Z,10.63
2022-10-09T05:31:22.980Z,10.68
2022-10-09T05:33:50.584Z,10.00
2022-10-09T05:36:17.989Z,10.65
2022-10-09T05:38:45.260Z,11.35
2022-10-09T05:41:14.798Z,11.75
2022-10-09T05:43:44.162Z,10.93
2022-10-09T05:46:15.815Z,10.52
2022-10-09T05:51:15.494Z,11.27
2022-10-09T05:53:44.408Z,11.05
2022-10-09T05:56:25.084Z,11.63
2022-10-09T05:58:55.787Z,11.77
2022-10-09T06:01:25.827Z,11.25
2022-10-09T06:03:55.548Z,12.35
2022-10-09T06:06:24.754Z,11.52
2022-10-09T06:08:52.250Z,10.18
2022-10-09T06:11:28.253Z,11.55
2022-10-09T06:13:56.257Z,10.93
2022-10-09T06:16:25.881Z,10.57
2022-10-09T06:18:54.358Z,11.27
2022-10-09T06:21:22.641Z,11.63
2022-10-09T06:23:54.566Z,10.98
2022-10-09T06:26:22.698Z,11.70
2022-10-09T06:28:50.577Z,10.55
2022-10-09T06:31:20.541Z,12.05
2022-10-09T06:33:49.454Z,11.23
2022-10-09T06:36:17.975Z,10.65
2022-10-09T06:38:45.531Z,11.18
2022-10-09T06:41:15.042Z,11.45
2022-10-09T06:43:43.425Z,11.88
2022-10-09T06:46:12.431Z,11.52
2022-10-09T06:48:40.465Z,10.43
2022-10-09T06:51:10.955Z,10.85
2022-10-09T06:53:43.420Z,10.27
2022-10-09T06:56:11.588Z,9.95
2022-10-09T06:58:39.388Z,9.23
2022-10-09T07:01:10.525Z,9.18
2022-10-09T07:03:39.400Z,9.95
2022-10-09T07:06:12.230Z,10.85
2022-10-09T07:08:41.640Z,10.38
2022-10-09T07:11:30.517Z,10.23
2022-10-09T07:13:59.363Z,10.70
2022-10-09T07:16:29.098Z,10.13
2022-10-09T07:18:56.428Z,10.80
2022-10-09T07:21:24.326Z,8.25
2022-10-09T07:23:51.435Z,7.22
2022-10-09T07:26:21.405Z,6.18
2022-10-09T07:28:49.356Z,7.10
2022-10-09T07:31:16.897Z,5.80
2022-10-09T07:33:46.543Z,6.25
2022-10-09T07:36:13.685Z,6.65
2022-10-09T07:38:40.540Z,6.57
2022-10-09T07:41:10.410Z,7.55
2022-10-09T07:43:39.787Z,8.20
2022-10-09T07:46:10.877Z,8.38
2022-10-09T07:48:38.684Z,9.35
2022-10-09T07:51:08.430Z,9.13
2022-10-09T07:53:36.141Z,9.82
2022-10-09T07:56:04.565Z,10.20
2022-10-09T07:58:32.500Z,8.98
2022-10-09T08:01:07.308Z,9.52
2022-10-09T08:03:35.333Z,10.77
2022-10-09T08:06:03.209Z,10.43
2022-10-09T08:08:30.244Z,10.02
2022-10-09T08:10:57.352Z,10.68
2022-10-09T08:13:24.427Z,10.90
2022-10-09T08:15:51.842Z,10.45
2022-10-09T08:18:19.144Z,9.07
2022-10-09T08:20:56.493Z,9.60
2022-10-09T08:23:24.000Z,9.68
2022-10-09T08:25:50.868Z,9.23
2022-10-09T08:28:17.891Z,9.77
2022-10-09T08:30:45.090Z,9.52
2022-10-09T08:33:12.634Z,9.35
2022-10-09T08:35:39.833Z,10.07
2022-10-09T08:38:07.149Z,9.63
2022-10-09T08:40:37.175Z,10.30
2022-10-09T08:43:06.433Z,10.10
2022-10-09T08:45:40.625Z,10.77
2022-10-09T08:48:14.609Z,9.95
2022-10-09T08:50:48.794Z,10.90
2022-10-09T08:53:32.170Z,10.52
2022-10-09T08:56:03.289Z,9.93
2022-10-09T08:58:36.071Z,10.48
2022-10-09T09:01:22.172Z,9.88
2022-10-09T09:03:55.256Z,9.30
2022-10-09T09:06:35.958Z,9.38
2022-10-09T09:09:21.001Z,8.95
2022-10-09T09:11:56.563Z,9.18
2022-10-09T09:14:46.579Z,9.55
2022-10-09T09:17:25.405Z,8.40
2022-10-09T09:20:23.753Z,8.95
2022-10-09T09:22:51.272Z,8.23
2022-10-09T09:25:19.156Z,7.07
2022-10-09T09:27:46.306Z,7.68
2022-10-09T09:30:16.371Z,7.47
2022-10-09T09:33:10.774Z,6.95
2022-10-09T09:35:49.533Z,7.20
2022-10-09T09:38:16.642Z,7.00
2022-10-09T09:40:47.203Z,7.30
2022-10-09T09:43:26.351Z,6.80
2022-10-09T09:45:56.297Z,6.40
2022-10-09T09:48:37.481Z,6.20
2022-10-09T09:51:27.940Z,6.63
2022-10-09T09:54:01.722Z,6.18
2022-10-09T09:57:10.458Z,6.40
2022-10-09T09:59:40.346Z,5.90
2022-10-09T10:02:23.933Z,6.85
2022-10-09T10:04:52.498Z,6.93
2022-10-09T10:07:28.852Z,7.03
2022-10-09T10:10:26.763Z,6.65
2022-10-09T10:12:58.726Z,6.65
2022-10-09T10:15:31.498Z,6.68
2022-10-09T10:18:03.243Z,6.93
2022-10-09T10:23:01.063Z,6.38
2022-10-09T10:25:33.617Z,7.03
2022-10-09T10:28:08.428Z,6.88
2022-10-09T10:30:37.021Z,7.55
2022-10-09T10:33:14.263Z,6.90
2022-10-09T10:35:43.591Z,7.25
2022-10-09T10:38:29.791Z,8.85
2022-10-09T10:41:19.994Z,8.05
2022-10-09T10:43:49.491Z,7.25
2022-10-09T10:46:24.116Z,7.95
2022-10-09T10:48:52.253Z,8.32
2022-10-09T10:51:42.014Z,8.02
2022-10-09T10:54:32.029Z,8.32
2022-10-09T10:57:07.457Z,7.80
2022-10-09T11:00:06.380Z,6.93
2022-10-09T11:02:42.808Z,7.10
2022-10-09T11:05:31.140Z,7.38
2022-10-09T11:08:13.292Z,7.05
2022-10-09T11:11:03.568Z,7.18
2022-10-09T11:13:37.657Z,6.03
2022-10-09T11:16:13.888Z,5.75
2022-10-09T11:18:53.088Z,5.43
2022-10-09T11:21:55.580Z,6.00
2022-10-09T11:24:40.726Z,6.72
2022-10-09T11:27:23.111Z,7.88
2022-10-09T11:30:03.234Z,7.78
2022-10-09T11:32:36.958Z,8.82
2022-10-09T11:35:25.416Z,8.77
2022-10-09T11:38:07.947Z,7.68
2022-10-09T11:40:54.472Z,7.82
2022-10-09T11:43:28.588Z,7.95
2022-10-09T11:46:09.687Z,7.10
2022-10-09T11:48:46.876Z,7.68
2022-10-09T11:51:20.070Z,6.82
2022-10-09T11:53:47.809Z,6.70
2022-10-09T11:56:26.824Z,5.80
2022-10-09T11:58:59.081Z,5.80
2022-10-09T12:01:32.112Z,5.72
2022-10-09T12:04:09.700Z,5.63
2022-10-09T12:06:53.071Z,5.80
2022-10-09T12:09:29.022Z,4.50
2022-10-09T12:12:08.194Z,4.72
2022-10-09T12:14:38.241Z,4.03
2022-10-09T12:17:18.335Z,3.47
2022-10-09T12:19:45.796Z,3.65
2022-10-09T12:22:17.149Z,4.07
2022-10-09T12:25:30.584Z,4.03
2022-10-09T12:28:00.332Z,3.30
2022-10-09T12:30:48.786Z,3.15
2022-10-09T12:33:37.013Z,2.92
2022-10-09T12:36:14.707Z,3.47
2022-10-09T12:38:43.012Z,3.17
2022-10-09T12:41:31.543Z,2.95
2022-10-09T12:43:59.436Z,3.05
2022-10-09T12:46:31.154Z,3.25
2022-10-09T12:48:59.868Z,2.88
2022-10-09T12:51:30.250Z,3.72
2022-10-09T12:53:57.202Z,3.50
2022-10-09T12:56:31.266Z,3.25
2022-10-09T12:59:00.522Z,3.33
2022-10-09T13:01:28.031Z,3.58
2022-10-09T13:03:59.218Z,3.60
2022-10-09T13:06:38.267Z,4.30
2022-10-09T13:09:08.064Z,3.80
2022-10-09T13:11:38.712Z,4.30
2022-10-09T13:14:05.779Z,4.20
2022-10-09T13:16:44.552Z,4.00
2022-10-09T13:19:24.374Z,4.38
2022-10-09T13:22:08.672Z,4.57
2022-10-09T13:24:35.977Z,3.97
2022-10-09T13:27:04.045Z,3.95
2022-10-09T13:29:31.597Z,3.65
2022-10-09T13:31:58.674Z,3.92
2022-10-09T13:34:28.559Z,3.63
2022-10-09T13:36:56.889Z,3.67
2022-10-09T13:39:23.874Z,4.03
2022-10-09T13:41:55.815Z,3.88
2022-10-09T13:44:23.283Z,4.35
2022-10-09T13:46:50.148Z,3.90
2022-10-09T13:49:17.206Z,4.30
2022-10-09T13:51:44.440Z,4.22
2022-10-09T13:54:11.426Z,4.32
2022-10-09T13:56:38.383Z,3.95
2022-10-09T13:59:05.621Z,4.07
2022-10-09T14:01:32.688Z,3.60
2022-10-09T14:03:59.678Z,4.20
2022-10-09T14:06:26.807Z,3.80
2022-10-09T14:08:54.021Z,3.90
2022-10-09T14:11:22.007Z,4.10
2022-10-09T14:13:49.725Z,4.30
2022-10-09T14:16:16.845Z,4.47
2022-10-09T14:18:43.798Z,4.70
2022-10-09T14:21:15.343Z,5.07
2022-10-09T14:23:43.200Z,4.20
2022-10-09T14:26:10.268Z,4.18
2022-10-09T14:28:37.835Z,4.15
2022-10-09T14:31:06.838Z,4.90
2022-10-09T14:33:33.877Z,4.75
2022-10-09T14:36:21.216Z,4.28
2022-10-09T14:38:49.333Z,5.22
2022-10-09T14:41:20.049Z,4.90
2022-10-09T14:43:48.237Z,4.47
2022-10-09T14:46:17.350Z,4.82
2022-10-09T14:48:45.750Z,4.35
2022-10-09T14:51:16.204Z,4.47
2022-10-09T14:53:44.070Z,4.50
2022-10-09T14:56:17.277Z,4.50
2022-10-09T14:58:44.888Z,4.78
2022-10-09T15:01:17.503Z,5.15
2022-10-09T15:03:46.081Z,4.50
2022-10-09T15:06:13.977Z,5.03
2022-10-09T15:08:42.436Z,4.57
2022-10-09T15:11:10.820Z,4.95
2022-10-09T15:13:39.073Z,5.22
2022-10-09T15:16:09.480Z,4.32
2022-10-09T15:18:36.348Z,4.85
2022-10-09T15:21:04.204Z,5.65
2022-10-09T15:23:31.658Z,5.20
2022-10-09T15:25:59.880Z,5.55
2022-10-09T15:28:27.313Z,4.82
2022-10-09T15:30:57.830Z,5.22
2022-10-09T15:33:25.756Z,5.82
2022-10-09T15:35:54.257Z,6.05
2022-10-09T15:38:23.995Z,5.45
2022-10-09T15:40:56.306Z,6.15
2022-10-09T15:43:26.131Z,6.15
2022-10-09T15:46:00.438Z,6.13
2022-10-09T15:48:27.525Z,6.10
2022-10-09T15:50:54.566Z,6.20
2022-10-09T15:53:23.963Z,5.90
2022-10-09T15:55:53.315Z,5.95
2022-10-09T15:58:20.640Z,6.50
2022-10-09T16:00:49.687Z,6.57
2022-10-09T16:03:18.208Z,6.70
2022-10-09T16:05:49.092Z,6.15
2022-10-09T16:08:18.983Z,7.15
2022-10-09T16:10:49.503Z,6.22
2022-10-09T16:13:16.979Z,5.97
2022-10-09T16:15:48.573Z,48.63
2022-10-09T16:20:52.057Z,6.63
2022-10-09T16:23:19.105Z,6.50
2022-10-09T16:25:56.824Z,7.50
2022-10-09T16:28:24.899Z,6.35
2022-10-09T16:30:52.096Z,6.50
2022-10-09T16:33:19.312Z,6.72
2022-10-09T16:35:46.552Z,5.97
2022-10-09T16:38:14.842Z,7.28
2022-10-09T16:41:03.001Z,6.13
2022-10-09T16:43:33.593Z,6.97
2022-10-09T16:46:20.771Z,6.45
2022-10-09T16:48:50.490Z,7.00
2022-10-09T16:51:22.023Z,6.50
2022-10-09T16:53:53.947Z,6.78
2022-10-09T16:56:23.769Z,7.45
2022-10-09T16:58:55.252Z,7.10
2022-10-09T17:01:23.823Z,6.40
2022-10-09T17:03:50.978Z,7.13
2022-10-09T17:06:23.770Z,5.97
2022-10-09T17:08:53.269Z,5.40
2022-10-09T17:11:22.038Z,5.82
2022-10-09T17:13:49.015Z,6.30
2022-10-09T17:16:19.659Z,6.13
2022-10-09T17:18:48.414Z,6.38
2022-10-09T17:21:18.492Z,5.88
2022-10-09T17:23:46.858Z,5.55
2022-10-09T17:26:19.700Z,5.63
2022-10-09T17:28:47.665Z,5.88
2022-10-09T17:31:17.804Z,5.65
2022-10-09T17:33:48.421Z,6.20
2022-10-09T17:36:19.666Z,6.27
2022-10-09T17:38:48.401Z,7.95
2022-10-09T17:41:17.047Z,6.53
2022-10-09T17:43:45.079Z,6.65
2022-10-09T17:46:14.180Z,7.22
2022-10-09T17:48:46.820Z,7.43
2022-10-09T17:51:16.578Z,6.55
2022-10-09T17:53:46.289Z,7.82
2022-10-09T17:56:13.362Z,8.10
2022-10-09T17:58:40.794Z,7.28
2022-10-09T18:01:08.918Z,7.50
2022-10-09T18:03:36.586Z,8.13
2022-10-09T18:06:09.656Z,8.07
2022-10-09T18:08:37.031Z,7.82
2022-10-09T18:11:08.125Z,8.57
2022-10-09T18:13:36.297Z,8.93
2022-10-09T18:16:15.458Z,8.80
2022-10-09T18:18:43.856Z,9.02
2022-10-09T18:21:14.465Z,10.35
2022-10-09T18:23:41.787Z,10.00
2022-10-09T18:26:10.909Z,10.23
2022-10-09T18:28:38.384Z,10.70
2022-10-09T18:31:13.849Z,11.40
2022-10-09T18:33:41.311Z,11.38
2022-10-09T18:36:19.444Z,11.05
2022-10-09T18:39:01.319Z,10.65
2022-10-09T18:41:28.588Z,11.05
2022-10-09T18:43:59.859Z,11.77
2022-10-09T18:46:32.061Z,10.75
2022-10-09T18:48:59.743Z,12.07
2022-10-09T18:51:28.571Z,11.77
2022-10-09T18:54:00.192Z,12.25
2022-10-09T18:56:30.990Z,12.77
2022-10-09T18:59:00.174Z,12.82
2022-10-09T19:01:27.545Z,11.90
2022-10-09T19:03:54.583Z,12.07
2022-10-09T19:06:23.274Z,12.43
2022-10-09T19:08:50.479Z,12.93
2022-10-09T19:11:17.652Z,12.82
2022-10-09T19:13:45.180Z,13.80
2022-10-09T19:16:12.514Z,14.25
2022-10-09T19:18:39.769Z,12.30
2022-10-09T19:21:07.541Z,12.93
2022-10-09T19:23:34.550Z,13.45
2022-10-09T19:26:01.903Z,13.40
2022-10-09T19:28:37.652Z,12.30
2022-10-09T19:31:06.346Z,12.40
2022-10-09T19:33:33.777Z,12.50
2022-10-09T19:36:01.674Z,12.82
2022-10-09T19:38:28.728Z,12.40
2022-10-09T19:40:55.909Z,12.43
2022-10-09T19:43:24.322Z,12.75
2022-10-09T19:46:01.177Z,12.80
2022-10-09T19:48:28.267Z,12.73
2022-10-09T19:50:55.830Z,12.55
2022-10-09T19:53:22.826Z,12.93
2022-10-09T19:55:49.916Z,14.27
2022-10-09T19:58:17.970Z,14.00
2022-10-09T20:00:48.257Z,13.48
2022-10-09T20:03:15.451Z,13.35
2022-10-09T20:05:42.729Z,13.20
2022-10-09T20:08:10.016Z,13.15
2022-10-09T20:10:38.765Z,14.70
2022-10-09T20:13:05.981Z,13.98
2022-10-09T20:15:33.181Z,14.35
2022-10-09T20:18:00.276Z,14.13
2022-10-09T20:20:27.664Z,14.15
2022-10-09T20:22:54.597Z,13.55
2022-10-09T20:25:21.936Z,13.90
2022-10-09T20:27:48.893Z,14.27
2022-10-09T20:30:16.253Z,12.60
2022-10-09T20:32:43.152Z,13.75
2022-10-09T20:35:10.433Z,12.80
2022-10-09T20:37:37.636Z,13.23
2022-10-09T20:40:05.347Z,13.82
2022-10-09T20:42:32.298Z,14.23
2022-10-09T20:44:59.544Z,15.02
2022-10-09T20:47:26.535Z,14.48
2022-10-09T20:49:53.651Z,14.07
2022-10-09T20:52:20.671Z,14.68
2022-10-09T20:54:48.021Z,15.55
2022-10-09T20:57:14.891Z,15.68
2022-10-09T20:59:42.142Z,13.82
2022-10-09T21:02:13.356Z,14.50
2022-10-09T21:07:07.540Z,15.73
2022-10-09T21:09:34.731Z,15.98
2022-10-09T21:12:02.435Z,14.00
2022-10-09T21:14:30.061Z,14.25
2022-10-09T21:16:57.162Z,14.20
2022-10-09T21:19:24.582Z,14.90
2022-10-09T21:21:51.534Z,14.93
2022-10-09T21:24:18.694Z,15.57
2022-10-09T21:26:47.492Z,14.80
2022-10-09T21:29:14.742Z,15.75
2022-10-09T21:31:42.330Z,14.13
2022-10-09T21:34:09.421Z,15.95
2022-10-09T21:36:56.303Z,15.23
2022-10-09T21:39:30.700Z,16.27
2022-10-09T21:41:57.742Z,16.05
2022-10-09T21:44:24.902Z,14.55
2022-10-09T21:46:51.899Z,14.75
2022-10-09T21:49:22.082Z,14.70
2022-10-09T21:51:49.585Z,15.38
2022-10-09T21:54:16.784Z,15.77
2022-10-09T21:56:43.690Z,15.50
2022-10-09T21:59:10.825Z,16.00
2022-10-09T22:01:38.344Z,15.75
2022-10-09T22:04:05.324Z,16.27
2022-10-09T22:06:32.212Z,15.00
2022-10-09T22:09:00.046Z,15.60
2022-10-09T22:11:26.970Z,15.80
2022-10-09T22:13:55.833Z,15.77
2022-10-09T22:16:23.516Z,15.93
2022-10-09T22:18:50.423Z,16.08
2022-10-09T22:21:18.670Z,15.98
2022-10-09T22:23:45.821Z,17.52
2022-10-09T22:26:17.051Z,16.25
2022-10-09T22:28:45.536Z,16.02
2022-10-09T22:31:22.277Z,15.57
2022-10-09T22:33:54.168Z,16.33
2022-10-09T22:36:24.115Z,17.77
2022-10-09T22:38:59.880Z,16.45
2022-10-09T22:41:28.475Z,17.85
2022-10-09T22:43:58.329Z,16.55
2022-10-09T22:46:29.479Z,16.55
2022-10-09T22:48:56.466Z,16.58
2022-10-09T22:51:24.876Z,18.10
2022-10-09T22:53:52.044Z,16.90
2022-10-09T22:56:21.840Z,17.77
2022-10-09T22:58:50.761Z,18.05
2022-10-09T23:01:22.415Z,15.95
2022-10-09T23:03:49.606Z,17.95
2022-10-09T23:06:19.994Z,18.95
2022-10-09T23:08:48.179Z,17.53
2022-10-09T23:11:16.778Z,17.50
2022-10-09T23:13:45.468Z,17.02
2022-10-09T23:16:14.009Z,17.40
2022-10-09T23:18:42.330Z,15.82
2022-10-09T23:21:12.062Z,16.77
2022-10-09T23:23:40.131Z,16.55
2022-10-09T23:26:10.285Z,16.83
2022-10-09T23:28:38.197Z,16.13
2022-10-09T23:31:07.598Z,16.98
2022-10-09T23:33:35.842Z,18.63
2022-10-09T23:36:04.011Z,16.45
2022-10-09T23:38:31.255Z,16.05
2022-10-09T23:41:00.899Z,17.27
2022-10-09T23:43:29.440Z,16.80
2022-10-09T23:45:58.762Z,16.88
2022-10-09T23:48:26.753Z,16.75
2022-10-09T23:50:55.360Z,17.55
2022-10-09T23:53:24.609Z,16.73
2022-10-09T23:55:52.259Z,16.35
2022-10-09T23:58:21.186Z,17.15
